sensor_id;sensor_type;location;lat;lon;timestamp;P1;durP1;ratioP1;P2;durP2;ratioP2
70467;SDS011;57934;51.532;7.684;2023-07-31T00:00:34;8.63;;;5.30;;
70467;SDS011;57934;51.532;7.684;2023-07-31T00:03:00;11.60;;;5.63;;
70467;SDS011;57934;51.532;7.684;2023-07-31T00:05:26;10.32;;;5.63;;
70467;SDS011;57934;51.532;7.684;2023-07-31T00:07:52;9.73;;;5.43;;
70467;SDS011;57934;51.532;7.684;2023-07-31T00:10:19;11.38;;;5.82;;
70467;SDS011;57934;51.532;7.684;2023-07-31T00:12:45;10.82;;;6.20;;
70467;SDS011;57934;51.532;7.684;2023-07-31T00:15:11;11.27;;;5.28;;
70467;SDS011;57934;51.532;7.684;2023-07-31T00:17:39;11.90;;;5.50;;
70467;SDS011;57934;51.532;7.684;2023-07-31T00:20:05;10.48;;;5.10;;
70467;SDS011;57934;51.532;7.684;2023-07-31T00:22:31;12.77;;;5.72;;
70467;SDS011;57934;51.532;7.684;2023-07-31T00:24:57;12.20;;;5.70;;
70467;SDS011;57934;51.532;7.684;2023-07-31T00:27:23;13.43;;;5.85;;
70467;SDS011;57934;51.532;7.684;2023-07-31T00:29:50;14.05;;;5.40;;
70467;SDS011;57934;51.532;7.684;2023-07-31T00:32:16;11.70;;;5.60;;
70467;SDS011;57934;51.532;7.684;2023-07-31T00:34:42;12.02;;;5.10;;
70467;SDS011;57934;51.532;7.684;2023-07-31T00:37:08;15.15;;;5.38;;
70467;SDS011;57934;51.532;7.684;2023-07-31T00:39:34;14.60;;;5.30;;
70467;SDS011;57934;51.532;7.684;2023-07-31T00:42:01;10.35;;;4.88;;
70467;SDS011;57934;51.532;7.684;2023-07-31T00:44:27;12.85;;;5.13;;
70467;SDS011;57934;51.532;7.684;2023-07-31T00:46:53;15.20;;;5.30;;
70467;SDS011;57934;51.532;7.684;2023-07-31T00:49:20;11.73;;;5.55;;
70467;SDS011;57934;51.532;7.684;2023-07-31T00:51:48;10.18;;;5.05;;
70467;SDS011;57934;51.532;7.684;2023-07-31T00:54:14;9.48;;;4.88;;
70467;SDS011;57934;51.532;7.684;2023-07-31T00:56:41;9.10;;;5.43;;
70467;SDS011;57934;51.532;7.684;2023-07-31T00:59:10;14.05;;;5.00;;
70467;SDS011;57934;51.532;7.684;2023-07-31T01:01:36;11.85;;;5.38;;
70467;SDS011;57934;51.532;7.684;2023-07-31T01:04:03;10.52;;;5.22;;
70467;SDS011;57934;51.532;7.684;2023-07-31T01:10:02;12.38;;;5.30;;
70467;SDS011;57934;51.532;7.684;2023-07-31T01:12:13;15.00;;;5.50;;
70467;SDS011;57934;51.532;7.684;2023-07-31T01:17:26;19.35;;;6.35;;
70467;SDS011;57934;51.532;7.684;2023-07-31T01:19:53;12.35;;;6.05;;
70467;SDS011;57934;51.532;7.684;2023-07-31T01:22:49;20.88;;;6.68;;
70467;SDS011;57934;51.532;7.684;2023-07-31T01:28:14;20.45;;;7.38;;
70467;SDS011;57934;51.532;7.684;2023-07-31T01:30:47;23.08;;;6.97;;
70467;SDS011;57934;51.532;7.684;2023-07-31T01:33:15;20.85;;;7.72;;
70467;SDS011;57934;51.532;7.684;2023-07-31T01:35:43;20.65;;;8.38;;
70467;SDS011;57934;51.532;7.684;2023-07-31T01:38:10;23.65;;;7.88;;
70467;SDS011;57934;51.532;7.684;2023-07-31T01:40:36;23.10;;;8.05;;
70467;SDS011;57934;51.532;7.684;2023-07-31T01:43:02;22.67;;;8.25;;
70467;SDS011;57934;51.532;7.684;2023-07-31T01:45:28;31.52;;;8.95;;
70467;SDS011;57934;51.532;7.684;2023-07-31T01:47:54;30.80;;;8.57;;
70467;SDS011;57934;51.532;7.684;2023-07-31T01:50:20;29.08;;;8.82;;
70467;SDS011;57934;51.532;7.684;2023-07-31T01:52:46;23.25;;;8.88;;
70467;SDS011;57934;51.532;7.684;2023-07-31T01:55:12;24.67;;;8.85;;
70467;SDS011;57934;51.532;7.684;2023-07-31T01:57:38;26.08;;;8.27;;
70467;SDS011;57934;51.532;7.684;2023-07-31T02:00:04;30.63;;;8.90;;
70467;SDS011;57934;51.532;7.684;2023-07-31T02:02:37;23.95;;;8.30;;
70467;SDS011;57934;51.532;7.684;2023-07-31T02:05:03;24.00;;;8.25;;
70467;SDS011;57934;51.532;7.684;2023-07-31T02:07:30;21.02;;;7.82;;
70467;SDS011;57934;51.532;7.684;2023-07-31T02:09:56;24.27;;;7.22;;
70467;SDS011;57934;51.532;7.684;2023-07-31T02:12:22;23.25;;;7.82;;
70467;SDS011;57934;51.532;7.684;2023-07-31T02:14:48;22.60;;;7.65;;
70467;SDS011;57934;51.532;7.684;2023-07-31T02:17:14;18.83;;;7.75;;
70467;SDS011;57934;51.532;7.684;2023-07-31T02:19:40;18.08;;;6.78;;
70467;SDS011;57934;51.532;7.684;2023-07-31T02:22:05;16.50;;;7.60;;
70467;SDS011;57934;51.532;7.684;2023-07-31T02:24:31;17.00;;;6.65;;
70467;SDS011;57934;51.532;7.684;2023-07-31T02:26:57;21.80;;;7.03;;
70467;SDS011;57934;51.532;7.684;2023-07-31T02:29:23;21.20;;;6.72;;
70467;SDS011;57934;51.532;7.684;2023-07-31T02:31:49;15.70;;;6.88;;
70467;SDS011;57934;51.532;7.684;2023-07-31T02:34:15;19.73;;;6.80;;
70467;SDS011;57934;51.532;7.684;2023-07-31T02:36:42;18.65;;;6.10;;
70467;SDS011;57934;51.532;7.684;2023-07-31T02:39:08;16.48;;;5.70;;
70467;SDS011;57934;51.532;7.684;2023-07-31T02:41:34;13.85;;;5.65;;
70467;SDS011;57934;51.532;7.684;2023-07-31T02:44:00;18.73;;;6.25;;
70467;SDS011;57934;51.532;7.684;2023-07-31T02:46:26;16.30;;;5.47;;
70467;SDS011;57934;51.532;7.684;2023-07-31T02:48:52;15.35;;;5.97;;
70467;SDS011;57934;51.532;7.684;2023-07-31T02:51:18;14.25;;;4.93;;
70467;SDS011;57934;51.532;7.684;2023-07-31T02:53:46;13.82;;;5.22;;
70467;SDS011;57934;51.532;7.684;2023-07-31T02:56:12;14.95;;;4.60;;
70467;SDS011;57934;51.532;7.684;2023-07-31T02:58:38;15.20;;;5.30;;
70467;SDS011;57934;51.532;7.684;2023-07-31T03:01:04;23.60;;;5.72;;
70467;SDS011;57934;51.532;7.684;2023-07-31T03:03:29;14.75;;;5.45;;
70467;SDS011;57934;51.532;7.684;2023-07-31T03:05:55;12.15;;;4.65;;
70467;SDS011;57934;51.532;7.684;2023-07-31T03:08:21;14.82;;;5.70;;
70467;SDS011;57934;51.532;7.684;2023-07-31T03:10:49;14.25;;;5.53;;
70467;SDS011;57934;51.532;7.684;2023-07-31T03:13:15;16.88;;;5.22;;
70467;SDS011;57934;51.532;7.684;2023-07-31T03:15:44;17.70;;;5.97;;
70467;SDS011;57934;51.532;7.684;2023-07-31T03:18:10;14.90;;;5.18;;
70467;SDS011;57934;51.532;7.684;2023-07-31T03:20:36;11.10;;;5.35;;
70467;SDS011;57934;51.532;7.684;2023-07-31T03:23:01;12.88;;;5.15;;
70467;SDS011;57934;51.532;7.684;2023-07-31T03:25:27;11.98;;;5.45;;
70467;SDS011;57934;51.532;7.684;2023-07-31T03:27:53;16.90;;;5.65;;
70467;SDS011;57934;51.532;7.684;2023-07-31T03:30:19;16.83;;;4.90;;
70467;SDS011;57934;51.532;7.684;2023-07-31T03:32:46;13.98;;;4.97;;
70467;SDS011;57934;51.532;7.684;2023-07-31T03:35:11;14.60;;;5.20;;
70467;SDS011;57934;51.532;7.684;2023-07-31T03:37:37;16.35;;;5.10;;
70467;SDS011;57934;51.532;7.684;2023-07-31T03:40:04;15.18;;;5.25;;
70467;SDS011;57934;51.532;7.684;2023-07-31T03:42:30;14.43;;;5.80;;
70467;SDS011;57934;51.532;7.684;2023-07-31T03:44:56;15.98;;;5.15;;
70467;SDS011;57934;51.532;7.684;2023-07-31T03:47:22;10.18;;;4.60;;
70467;SDS011;57934;51.532;7.684;2023-07-31T03:49:48;14.20;;;4.78;;
70467;SDS011;57934;51.532;7.684;2023-07-31T03:52:14;19.70;;;4.72;;
70467;SDS011;57934;51.532;7.684;2023-07-31T03:54:40;15.38;;;5.15;;
70467;SDS011;57934;51.532;7.684;2023-07-31T03:57:06;14.07;;;5.45;;
70467;SDS011;57934;51.532;7.684;2023-07-31T03:59:32;17.85;;;4.88;;
70467;SDS011;57934;51.532;7.684;2023-07-31T04:01:58;23.17;;;5.38;;
70467;SDS011;57934;51.532;7.684;2023-07-31T04:04:24;15.18;;;5.68;;
70467;SDS011;57934;51.532;7.684;2023-07-31T04:06:50;17.05;;;5.72;;
70467;SDS011;57934;51.532;7.684;2023-07-31T04:09:16;11.75;;;4.75;;
70467;SDS011;57934;51.532;7.684;2023-07-31T04:11:42;11.18;;;4.68;;
70467;SDS011;57934;51.532;7.684;2023-07-31T04:14:08;14.23;;;5.28;;
70467;SDS011;57934;51.532;7.684;2023-07-31T04:16:34;14.18;;;4.15;;
70467;SDS011;57934;51.532;7.684;2023-07-31T04:19:00;13.25;;;4.63;;
70467;SDS011;57934;51.532;7.684;2023-07-31T04:21:26;9.80;;;4.55;;
70467;SDS011;57934;51.532;7.684;2023-07-31T04:23:52;10.65;;;4.18;;
70467;SDS011;57934;51.532;7.684;2023-07-31T04:26:21;12.00;;;4.72;;
70467;SDS011;57934;51.532;7.684;2023-07-31T04:28:47;11.50;;;5.03;;
70467;SDS011;57934;51.532;7.684;2023-07-31T04:31:13;10.85;;;4.20;;
70467;SDS011;57934;51.532;7.684;2023-07-31T04:33:39;13.82;;;5.00;;
70467;SDS011;57934;51.532;7.684;2023-07-31T04:36:05;10.65;;;4.63;;
70467;SDS011;57934;51.532;7.684;2023-07-31T04:38:31;13.18;;;4.72;;
70467;SDS011;57934;51.532;7.684;2023-07-31T04:40:57;13.13;;;4.88;;
70467;SDS011;57934;51.532;7.684;2023-07-31T04:43:24;13.65;;;5.20;;
70467;SDS011;57934;51.532;7.684;2023-07-31T04:45:49;13.70;;;4.47;;
70467;SDS011;57934;51.532;7.684;2023-07-31T04:48:16;11.50;;;4.28;;
70467;SDS011;57934;51.532;7.684;2023-07-31T04:50:42;9.82;;;4.15;;
70467;SDS011;57934;51.532;7.684;2023-07-31T04:53:08;12.35;;;4.65;;
70467;SDS011;57934;51.532;7.684;2023-07-31T04:55:34;9.98;;;4.60;;
70467;SDS011;57934;51.532;7.684;2023-07-31T04:58:00;13.05;;;5.03;;
70467;SDS011;57934;51.532;7.684;2023-07-31T05:00:26;12.82;;;4.43;;
70467;SDS011;57934;51.532;7.684;2023-07-31T05:02:51;10.25;;;4.82;;
70467;SDS011;57934;51.532;7.684;2023-07-31T05:05:17;10.30;;;4.60;;
70467;SDS011;57934;51.532;7.684;2023-07-31T05:07:43;14.23;;;4.95;;
70467;SDS011;57934;51.532;7.684;2023-07-31T05:10:09;11.90;;;4.78;;
70467;SDS011;57934;51.532;7.684;2023-07-31T05:12:35;9.43;;;4.32;;
70467;SDS011;57934;51.532;7.684;2023-07-31T05:15:01;12.88;;;4.90;;
70467;SDS011;57934;51.532;7.684;2023-07-31T05:17:27;11.77;;;4.57;;
70467;SDS011;57934;51.532;7.684;2023-07-31T05:19:53;12.40;;;5.18;;
70467;SDS011;57934;51.532;7.684;2023-07-31T05:22:19;14.52;;;5.47;;
70467;SDS011;57934;51.532;7.684;2023-07-31T05:24:45;7.97;;;4.68;;
70467;SDS011;57934;51.532;7.684;2023-07-31T05:27:11;15.73;;;4.95;;
70467;SDS011;57934;51.532;7.684;2023-07-31T05:29:38;13.00;;;5.10;;
70467;SDS011;57934;51.532;7.684;2023-07-31T05:32:06;13.75;;;5.50;;
70467;SDS011;57934;51.532;7.684;2023-07-31T05:34:32;12.68;;;5.43;;
70467;SDS011;57934;51.532;7.684;2023-07-31T05:36:58;13.07;;;5.55;;
70467;SDS011;57934;51.532;7.684;2023-07-31T05:39:24;13.45;;;5.20;;
70467;SDS011;57934;51.532;7.684;2023-07-31T05:41:50;14.23;;;5.15;;
70467;SDS011;57934;51.532;7.684;2023-07-31T05:44:16;14.75;;;6.18;;
70467;SDS011;57934;51.532;7.684;2023-07-31T05:46:42;14.50;;;5.65;;
70467;SDS011;57934;51.532;7.684;2023-07-31T05:49:08;16.55;;;5.95;;
70467;SDS011;57934;51.532;7.684;2023-07-31T05:51:34;11.50;;;5.65;;
70467;SDS011;57934;51.532;7.684;2023-07-31T05:54:00;16.30;;;5.78;;
70467;SDS011;57934;51.532;7.684;2023-07-31T05:56:26;14.68;;;6.13;;
70467;SDS011;57934;51.532;7.684;2023-07-31T05:58:52;13.85;;;6.20;;
70467;SDS011;57934;51.532;7.684;2023-07-31T06:01:18;14.88;;;6.75;;
70467;SDS011;57934;51.532;7.684;2023-07-31T06:03:46;15.48;;;5.88;;
70467;SDS011;57934;51.532;7.684;2023-07-31T06:06:12;16.42;;;5.65;;
70467;SDS011;57934;51.532;7.684;2023-07-31T06:08:39;13.95;;;6.20;;
70467;SDS011;57934;51.532;7.684;2023-07-31T06:11:06;11.35;;;5.32;;
70467;SDS011;57934;51.532;7.684;2023-07-31T06:13:35;11.32;;;6.22;;
70467;SDS011;57934;51.532;7.684;2023-07-31T06:16:01;11.95;;;6.43;;
70467;SDS011;57934;51.532;7.684;2023-07-31T06:18:33;14.35;;;6.15;;
70467;SDS011;57934;51.532;7.684;2023-07-31T06:20:59;15.55;;;7.55;;
70467;SDS011;57934;51.532;7.684;2023-07-31T06:23:25;16.75;;;7.28;;
70467;SDS011;57934;51.532;7.684;2023-07-31T06:25:51;13.85;;;7.20;;
70467;SDS011;57934;51.532;7.684;2023-07-31T06:28:17;15.80;;;7.00;;
70467;SDS011;57934;51.532;7.684;2023-07-31T06:30:43;11.75;;;7.10;;
70467;SDS011;57934;51.532;7.684;2023-07-31T06:33:09;12.20;;;7.00;;
70467;SDS011;57934;51.532;7.684;2023-07-31T06:35:35;15.82;;;6.90;;
70467;SDS011;57934;51.532;7.684;2023-07-31T06:38:01;16.75;;;6.88;;
70467;SDS011;57934;51.532;7.684;2023-07-31T06:40:28;10.77;;;6.90;;
70467;SDS011;57934;51.532;7.684;2023-07-31T06:42:55;12.70;;;6.00;;
70467;SDS011;57934;51.532;7.684;2023-07-31T06:45:20;11.20;;;6.45;;
70467;SDS011;57934;51.532;7.684;2023-07-31T06:47:47;12.50;;;7.20;;
70467;SDS011;57934;51.532;7.684;2023-07-31T06:50:13;11.70;;;6.65;;
70467;SDS011;57934;51.532;7.684;2023-07-31T06:52:39;13.07;;;6.20;;
70467;SDS011;57934;51.532;7.684;2023-07-31T06:55:18;11.65;;;6.25;;
70467;SDS011;57934;51.532;7.684;2023-07-31T06:57:46;12.07;;;6.78;;
70467;SDS011;57934;51.532;7.684;2023-07-31T07:00:12;13.90;;;6.28;;
70467;SDS011;57934;51.532;7.684;2023-07-31T07:02:39;13.98;;;6.53;;
70467;SDS011;57934;51.532;7.684;2023-07-31T07:05:06;9.80;;;6.32;;
70467;SDS011;57934;51.532;7.684;2023-07-31T07:07:32;11.60;;;6.05;;
70467;SDS011;57934;51.532;7.684;2023-07-31T07:09:58;13.45;;;6.78;;
70467;SDS011;57934;51.532;7.684;2023-07-31T07:12:29;12.00;;;6.47;;
70467;SDS011;57934;51.532;7.684;2023-07-31T07:14:56;11.00;;;7.00;;
70467;SDS011;57934;51.532;7.684;2023-07-31T07:17:23;11.52;;;6.70;;
70467;SDS011;57934;51.532;7.684;2023-07-31T07:19:50;13.93;;;7.32;;
70467;SDS011;57934;51.532;7.684;2023-07-31T07:22:16;10.18;;;6.35;;
70467;SDS011;57934;51.532;7.684;2023-07-31T07:24:43;11.13;;;5.93;;
70467;SDS011;57934;51.532;7.684;2023-07-31T07:27:09;15.02;;;6.57;;
70467;SDS011;57934;51.532;7.684;2023-07-31T07:29:35;10.35;;;5.78;;
70467;SDS011;57934;51.532;7.684;2023-07-31T07:32:01;14.52;;;5.70;;
70467;SDS011;57934;51.532;7.684;2023-07-31T07:34:27;11.23;;;5.85;;
70467;SDS011;57934;51.532;7.684;2023-07-31T07:36:54;10.77;;;5.22;;
70467;SDS011;57934;51.532;7.684;2023-07-31T07:39:20;8.52;;;4.60;;
70467;SDS011;57934;51.532;7.684;2023-07-31T07:41:46;9.30;;;4.93;;
70467;SDS011;57934;51.532;7.684;2023-07-31T07:44:13;9.23;;;5.25;;
70467;SDS011;57934;51.532;7.684;2023-07-31T07:46:40;8.50;;;5.00;;
70467;SDS011;57934;51.532;7.684;2023-07-31T07:49:06;9.35;;;5.15;;
70467;SDS011;57934;51.532;7.684;2023-07-31T07:51:32;6.60;;;5.32;;
70467;SDS011;57934;51.532;7.684;2023-07-31T07:53:58;9.43;;;5.28;;
70467;SDS011;57934;51.532;7.684;2023-07-31T07:56:27;10.68;;;5.05;;
70467;SDS011;57934;51.532;7.684;2023-07-31T07:58:53;8.75;;;5.45;;
70467;SDS011;57934;51.532;7.684;2023-07-31T08:01:20;9.35;;;5.60;;
70467;SDS011;57934;51.532;7.684;2023-07-31T08:03:46;9.75;;;5.63;;
70467;SDS011;57934;51.532;7.684;2023-07-31T08:06:12;10.77;;;6.22;;
70467;SDS011;57934;51.532;7.684;2023-07-31T08:08:38;10.05;;;5.82;;
70467;SDS011;57934;51.532;7.684;2023-07-31T08:11:04;11.13;;;5.85;;
70467;SDS011;57934;51.532;7.684;2023-07-31T08:13:31;12.15;;;6.35;;
70467;SDS011;57934;51.532;7.684;2023-07-31T08:15:56;8.65;;;5.53;;
70467;SDS011;57934;51.532;7.684;2023-07-31T08:18:23;12.10;;;5.82;;
70467;SDS011;57934;51.532;7.684;2023-07-31T08:20:48;7.38;;;5.35;;
70467;SDS011;57934;51.532;7.684;2023-07-31T08:23:14;12.10;;;6.00;;
70467;SDS011;57934;51.532;7.684;2023-07-31T08:25:40;8.65;;;5.68;;
70467;SDS011;57934;51.532;7.684;2023-07-31T08:28:07;14.43;;;6.50;;
70467;SDS011;57934;51.532;7.684;2023-07-31T08:30:33;15.98;;;5.95;;
70467;SDS011;57934;51.532;7.684;2023-07-31T08:32:59;8.50;;;5.47;;
70467;SDS011;57934;51.532;7.684;2023-07-31T08:35:26;12.60;;;6.07;;
70467;SDS011;57934;51.532;7.684;2023-07-31T08:37:53;9.60;;;5.45;;
70467;SDS011;57934;51.532;7.684;2023-07-31T08:40:20;13.10;;;5.97;;
70467;SDS011;57934;51.532;7.684;2023-07-31T08:42:48;10.93;;;5.45;;
70467;SDS011;57934;51.532;7.684;2023-07-31T08:45:16;7.95;;;5.97;;
70467;SDS011;57934;51.532;7.684;2023-07-31T08:47:47;11.73;;;6.30;;
70467;SDS011;57934;51.532;7.684;2023-07-31T08:50:15;9.85;;;5.95;;
70467;SDS011;57934;51.532;7.684;2023-07-31T08:52:43;11.57;;;5.75;;
70467;SDS011;57934;51.532;7.684;2023-07-31T08:55:09;8.85;;;5.38;;
70467;SDS011;57934;51.532;7.684;2023-07-31T08:57:36;9.60;;;5.72;;
70467;SDS011;57934;51.532;7.684;2023-07-31T09:00:07;9.93;;;5.28;;
70467;SDS011;57934;51.532;7.684;2023-07-31T09:02:48;12.15;;;5.32;;
70467;SDS011;57934;51.532;7.684;2023-07-31T09:05:19;8.90;;;5.05;;
70467;SDS011;57934;51.532;7.684;2023-07-31T09:07:47;4.10;;;3.70;;
70467;SDS011;57934;51.532;7.684;2023-07-31T09:10:15;5.47;;;3.67;;
70467;SDS011;57934;51.532;7.684;2023-07-31T09:12:41;12.15;;;4.18;;
70467;SDS011;57934;51.532;7.684;2023-07-31T09:15:08;5.25;;;3.47;;
70467;SDS011;57934;51.532;7.684;2023-07-31T09:17:35;7.38;;;4.18;;
70467;SDS011;57934;51.532;7.684;2023-07-31T09:20:15;6.57;;;3.38;;
70467;SDS011;57934;51.532;7.684;2023-07-31T09:22:42;7.80;;;3.78;;
70467;SDS011;57934;51.532;7.684;2023-07-31T09:27:53;5.90;;;4.22;;
70467;SDS011;57934;51.532;7.684;2023-07-31T09:30:30;5.70;;;3.77;;
70467;SDS011;57934;51.532;7.684;2023-07-31T09:33:03;5.70;;;3.72;;
70467;SDS011;57934;51.532;7.684;2023-07-31T09:35:34;5.65;;;3.40;;
70467;SDS011;57934;51.532;7.684;2023-07-31T09:38:03;3.78;;;3.42;;
70467;SDS011;57934;51.532;7.684;2023-07-31T09:42:58;5.45;;;3.63;;
70467;SDS011;57934;51.532;7.684;2023-07-31T09:45:26;8.25;;;3.72;;
70467;SDS011;57934;51.532;7.684;2023-07-31T09:47:52;5.38;;;3.40;;
70467;SDS011;57934;51.532;7.684;2023-07-31T09:50:19;5.70;;;3.83;;
70467;SDS011;57934;51.532;7.684;2023-07-31T09:52:46;5.20;;;3.75;;
70467;SDS011;57934;51.532;7.684;2023-07-31T09:55:12;7.03;;;4.13;;
70467;SDS011;57934;51.532;7.684;2023-07-31T09:57:43;6.03;;;3.67;;
70467;SDS011;57934;51.532;7.684;2023-07-31T10:00:11;6.70;;;3.90;;
70467;SDS011;57934;51.532;7.684;2023-07-31T10:02:41;7.22;;;3.75;;
70467;SDS011;57934;51.532;7.684;2023-07-31T10:05:12;6.05;;;3.38;;
70467;SDS011;57934;51.532;7.684;2023-07-31T10:07:48;6.43;;;3.47;;
70467;SDS011;57934;51.532;7.684;2023-07-31T10:10:20;3.50;;;3.20;;
70467;SDS011;57934;51.532;7.684;2023-07-31T10:12:50;4.50;;;3.40;;
70467;SDS011;57934;51.532;7.684;2023-07-31T10:15:18;5.15;;;3.70;;
70467;SDS011;57934;51.532;7.684;2023-07-31T10:17:46;4.68;;;3.40;;
70467;SDS011;57934;51.532;7.684;2023-07-31T10:20:14;4.63;;;3.42;;
70467;SDS011;57934;51.532;7.684;2023-07-31T10:22:42;6.38;;;3.70;;
70467;SDS011;57934;51.532;7.684;2023-07-31T10:25:09;5.40;;;3.40;;
70467;SDS011;57934;51.532;7.684;2023-07-31T10:27:36;4.20;;;3.47;;
70467;SDS011;57934;51.532;7.684;2023-07-31T10:30:04;7.30;;;3.50;;
70467;SDS011;57934;51.532;7.684;2023-07-31T10:32:33;10.98;;;3.95;;
70467;SDS011;57934;51.532;7.684;2023-07-31T10:35:01;4.95;;;3.00;;
70467;SDS011;57934;51.532;7.684;2023-07-31T10:37:30;3.38;;;2.80;;
70467;SDS011;57934;51.532;7.684;2023-07-31T10:40:05;3.95;;;2.92;;
70467;SDS011;57934;51.532;7.684;2023-07-31T10:42:36;3.22;;;2.70;;
70467;SDS011;57934;51.532;7.684;2023-07-31T10:45:06;3.88;;;2.63;;
70467;SDS011;57934;51.532;7.684;2023-07-31T10:47:38;4.35;;;2.25;;
70467;SDS011;57934;51.532;7.684;2023-07-31T10:50:20;2.95;;;2.20;;
70467;SDS011;57934;51.532;7.684;2023-07-31T10:52:50;4.40;;;2.63;;
70467;SDS011;57934;51.532;7.684;2023-07-31T10:55:23;2.33;;;2.13;;
70467;SDS011;57934;51.532;7.684;2023-07-31T10:57:51;3.88;;;2.65;;
70467;SDS011;57934;51.532;7.684;2023-07-31T11:00:22;2.17;;;2.08;;
70467;SDS011;57934;51.532;7.684;2023-07-31T11:02:58;3.80;;;2.35;;
70467;SDS011;57934;51.532;7.684;2023-07-31T11:06:12;2.55;;;2.03;;
70467;SDS011;57934;51.532;7.684;2023-07-31T11:08:25;2.42;;;1.85;;
70467;SDS011;57934;51.532;7.684;2023-07-31T11:13:27;1.63;;;1.52;;
70467;SDS011;57934;51.532;7.684;2023-07-31T11:16:21;3.53;;;2.20;;
70467;SDS011;57934;51.532;7.684;2023-07-31T11:18:49;2.80;;;2.05;;
70467;SDS011;57934;51.532;7.684;2023-07-31T11:21:18;2.38;;;2.17;;
70467;SDS011;57934;51.532;7.684;2023-07-31T11:23:47;3.58;;;2.50;;
70467;SDS011;57934;51.532;7.684;2023-07-31T11:26:14;2.25;;;1.98;;
70467;SDS011;57934;51.532;7.684;2023-07-31T11:28:40;2.88;;;2.28;;
70467;SDS011;57934;51.532;7.684;2023-07-31T11:31:08;1.92;;;1.80;;
70467;SDS011;57934;51.532;7.684;2023-07-31T11:33:35;3.42;;;2.08;;
70467;SDS011;57934;51.532;7.684;2023-07-31T11:36:01;2.40;;;2.20;;
70467;SDS011;57934;51.532;7.684;2023-07-31T11:38:28;6.78;;;2.55;;
70467;SDS011;57934;51.532;7.684;2023-07-31T11:41:03;4.88;;;2.75;;
70467;SDS011;57934;51.532;7.684;2023-07-31T11:43:33;3.20;;;2.78;;
70467;SDS011;57934;51.532;7.684;2023-07-31T11:46:00;2.97;;;2.70;;
70467;SDS011;57934;51.532;7.684;2023-07-31T11:48:31;5.18;;;2.95;;
70467;SDS011;57934;51.532;7.684;2023-07-31T11:51:00;4.82;;;2.97;;
70467;SDS011;57934;51.532;7.684;2023-07-31T11:56:06;3.55;;;3.10;;
70467;SDS011;57934;51.532;7.684;2023-07-31T11:58:34;4.93;;;3.50;;
70467;SDS011;57934;51.532;7.684;2023-07-31T12:01:01;4.38;;;3.10;;
70467;SDS011;57934;51.532;7.684;2023-07-31T12:03:28;7.57;;;3.25;;
70467;SDS011;57934;51.532;7.684;2023-07-31T12:05:54;4.38;;;3.30;;
70467;SDS011;57934;51.532;7.684;2023-07-31T12:08:21;8.13;;;3.47;;
70467;SDS011;57934;51.532;7.684;2023-07-31T12:10:52;4.47;;;3.08;;
70467;SDS011;57934;51.532;7.684;2023-07-31T12:13:20;5.22;;;3.50;;
70467;SDS011;57934;51.532;7.684;2023-07-31T12:15:48;5.40;;;3.75;;
70467;SDS011;57934;51.532;7.684;2023-07-31T12:18:15;4.03;;;3.63;;
70467;SDS011;57934;51.532;7.684;2023-07-31T12:20:45;4.82;;;4.15;;
70467;SDS011;57934;51.532;7.684;2023-07-31T12:23:18;7.80;;;3.58;;
70467;SDS011;57934;51.532;7.684;2023-07-31T12:25:45;4.95;;;3.90;;
70467;SDS011;57934;51.532;7.684;2023-07-31T12:28:11;5.22;;;3.65;;
70467;SDS011;57934;51.532;7.684;2023-07-31T12:30:38;4.07;;;3.35;;
70467;SDS011;57934;51.532;7.684;2023-07-31T12:33:14;5.10;;;3.20;;
70467;SDS011;57934;51.532;7.684;2023-07-31T12:35:42;4.97;;;3.05;;
70467;SDS011;57934;51.532;7.684;2023-07-31T12:38:13;3.72;;;2.83;;
70467;SDS011;57934;51.532;7.684;2023-07-31T12:40:40;5.07;;;2.88;;
70467;SDS011;57934;51.532;7.684;2023-07-31T12:43:07;3.75;;;2.75;;
70467;SDS011;57934;51.532;7.684;2023-07-31T12:45:34;3.20;;;2.63;;
70467;SDS011;57934;51.532;7.684;2023-07-31T12:48:00;4.07;;;2.90;;
70467;SDS011;57934;51.532;7.684;2023-07-31T12:50:27;5.53;;;2.65;;
70467;SDS011;57934;51.532;7.684;2023-07-31T12:52:53;2.85;;;2.50;;
70467;SDS011;57934;51.532;7.684;2023-07-31T12:55:21;4.97;;;2.55;;
70467;SDS011;57934;51.532;7.684;2023-07-31T12:57:47;3.58;;;2.45;;
70467;SDS011;57934;51.532;7.684;2023-07-31T13:00:13;4.05;;;2.58;;
70467;SDS011;57934;51.532;7.684;2023-07-31T13:02:40;3.20;;;2.80;;
70467;SDS011;57934;51.532;7.684;2023-07-31T13:05:06;3.75;;;2.65;;
70467;SDS011;57934;51.532;7.684;2023-07-31T13:07:32;3.72;;;2.20;;
70467;SDS011;57934;51.532;7.684;2023-07-31T13:09:58;3.20;;;2.90;;
70467;SDS011;57934;51.532;7.684;2023-07-31T13:12:24;3.75;;;2.75;;
70467;SDS011;57934;51.532;7.684;2023-07-31T13:14:50;5.78;;;3.05;;
70467;SDS011;57934;51.532;7.684;2023-07-31T13:17:17;5.50;;;3.13;;
70467;SDS011;57934;51.532;7.684;2023-07-31T13:19:44;5.65;;;3.40;;
70467;SDS011;57934;51.532;7.684;2023-07-31T13:22:10;7.00;;;3.50;;
70467;SDS011;57934;51.532;7.684;2023-07-31T13:24:36;4.03;;;2.83;;
70467;SDS011;57934;51.532;7.684;2023-07-31T13:27:02;5.82;;;2.92;;
70467;SDS011;57934;51.532;7.684;2023-07-31T13:29:28;7.72;;;3.25;;
70467;SDS011;57934;51.532;7.684;2023-07-31T13:31:55;4.53;;;2.85;;
70467;SDS011;57934;51.532;7.684;2023-07-31T13:34:21;4.95;;;3.22;;
70467;SDS011;57934;51.532;7.684;2023-07-31T13:36:47;3.13;;;2.75;;
70467;SDS011;57934;51.532;7.684;2023-07-31T13:39:13;4.20;;;2.80;;
70467;SDS011;57934;51.532;7.684;2023-07-31T13:41:39;3.42;;;2.58;;
70467;SDS011;57934;51.532;7.684;2023-07-31T13:44:05;2.92;;;2.03;;
70467;SDS011;57934;51.532;7.684;2023-07-31T13:46:31;4.22;;;2.25;;
70467;SDS011;57934;51.532;7.684;2023-07-31T13:48:58;3.08;;;1.95;;
70467;SDS011;57934;51.532;7.684;2023-07-31T13:51:25;3.88;;;2.67;;
70467;SDS011;57934;51.532;7.684;2023-07-31T13:53:53;2.58;;;2.33;;
70467;SDS011;57934;51.532;7.684;2023-07-31T13:56:19;4.00;;;2.60;;
70467;SDS011;57934;51.532;7.684;2023-07-31T13:58:45;2.53;;;2.20;;
70467;SDS011;57934;51.532;7.684;2023-07-31T14:01:11;3.35;;;2.45;;
70467;SDS011;57934;51.532;7.684;2023-07-31T14:03:37;2.67;;;2.15;;
70467;SDS011;57934;51.532;7.684;2023-07-31T14:06:03;4.22;;;2.47;;
70467;SDS011;57934;51.532;7.684;2023-07-31T14:08:29;2.70;;;2.50;;
70467;SDS011;57934;51.532;7.684;2023-07-31T14:10:55;3.25;;;2.47;;
70467;SDS011;57934;51.532;7.684;2023-07-31T14:13:21;3.45;;;2.80;;
70467;SDS011;57934;51.532;7.684;2023-07-31T14:15:47;4.50;;;2.50;;
70467;SDS011;57934;51.532;7.684;2023-07-31T14:18:13;2.78;;;2.38;;
70467;SDS011;57934;51.532;7.684;2023-07-31T14:20:39;3.17;;;2.28;;
70467;SDS011;57934;51.532;7.684;2023-07-31T14:23:05;4.10;;;2.90;;
70467;SDS011;57934;51.532;7.684;2023-07-31T14:25:31;4.10;;;2.50;;
70467;SDS011;57934;51.532;7.684;2023-07-31T14:27:57;4.32;;;2.63;;
70467;SDS011;57934;51.532;7.684;2023-07-31T14:30:23;4.22;;;2.60;;
70467;SDS011;57934;51.532;7.684;2023-07-31T14:32:49;4.47;;;2.90;;
70467;SDS011;57934;51.532;7.684;2023-07-31T14:35:15;3.85;;;2.70;;
70467;SDS011;57934;51.532;7.684;2023-07-31T14:37:42;7.15;;;2.38;;
70467;SDS011;57934;51.532;7.684;2023-07-31T14:40:10;3.00;;;2.60;;
70467;SDS011;57934;51.532;7.684;2023-07-31T14:42:38;3.10;;;2.80;;
70467;SDS011;57934;51.532;7.684;2023-07-31T14:45:05;6.28;;;2.83;;
70467;SDS011;57934;51.532;7.684;2023-07-31T14:47:32;4.18;;;2.83;;
70467;SDS011;57934;51.532;7.684;2023-07-31T14:49:58;3.20;;;2.90;;
70467;SDS011;57934;51.532;7.684;2023-07-31T14:52:25;2.88;;;2.67;;
70467;SDS011;57934;51.532;7.684;2023-07-31T14:54:51;4.60;;;3.15;;
70467;SDS011;57934;51.532;7.684;2023-07-31T14:57:17;3.78;;;2.75;;
70467;SDS011;57934;51.532;7.684;2023-07-31T14:59:44;3.95;;;2.92;;